sensor_id;sensor_type;location;lat;lon;timestamp;temperature;humidity
15707;DHT22;7953;54.302;10.128;2023-03-21T00:01:18;7.70;99.90
15707;DHT22;7953;54.302;10.128;2023-03-21T00:03:45;7.60;99.90
15707;DHT22;7953;54.302;10.128;2023-03-21T00:06:15;7.60;99.90
15707;DHT22;7953;54.302;10.128;2023-03-21T00:08:42;7.60;99.90
15707;DHT22;7953;54.302;10.128;2023-03-21T00:11:10;7.60;99.90
15707;DHT22;7953;54.302;10.128;2023-03-21T00:13:38;7.60;99.90
15707;DHT22;7953;54.302;10.128;2023-03-21T00:16:09;7.60;99.90
15707;DHT22;7953;54.302;10.128;2023-03-21T00:18:40;7.60;99.90
15707;DHT22;7953;54.302;10.128;2023-03-21T00:21:12;7.70;99.90
15707;DHT22;7953;54.302;10.128;2023-03-21T00:23:42;7.70;99.90
15707;DHT22;7953;54.302;10.128;2023-03-21T00:26:10;7.60;99.90
15707;DHT22;7953;54.302;10.128;2023-03-21T00:28:39;7.60;99.90
15707;DHT22;7953;54.302;10.128;2023-03-21T00:31:06;7.60;99.90
15707;DHT22;7953;54.302;10.128;2023-03-21T00:33:34;7.60;99.90
15707;DHT22;7953;54.302;10.128;2023-03-21T00:36:01;7.70;99.90
15707;DHT22;7953;54.302;10.128;2023-03-21T00:38:28;7.70;99.90
15707;DHT22;7953;54.302;10.128;2023-03-21T00:40:57;7.70;99.90
15707;DHT22;7953;54.302;10.128;2023-03-21T00:43:24;7.60;99.90
15707;DHT22;7953;54.302;10.128;2023-03-21T00:45:56;7.70;99.90
15707;DHT22;7953;54.302;10.128;2023-03-21T00:48:23;7.70;99.90
15707;DHT22;7953;54.302;10.128;2023-03-21T00:50:51;7.60;99.90
15707;DHT22;7953;54.302;10.128;2023-03-21T00:53:19;7.60;99.90
15707;DHT22;7953;54.302;10.128;2023-03-21T00:55:46;7.60;99.90
15707;DHT22;7953;54.302;10.128;2023-03-21T00:58:15;7.60;99.90
15707;DHT22;7953;54.302;10.128;2023-03-21T01:00:42;7.70;99.90
15707;DHT22;7953;54.302;10.128;2023-03-21T01:03:15;7.60;99.90
15707;DHT22;7953;54.302;10.128;2023-03-21T01:05:44;7.60;99.90
15707;DHT22;7953;54.302;10.128;2023-03-21T01:08:32;7.70;99.90
15707;DHT22;7953;54.302;10.128;2023-03-21T01:11:04;7.70;99.90
15707;DHT22;7953;54.302;10.128;2023-03-21T01:13:34;7.60;99.90
15707;DHT22;7953;54.302;10.128;2023-03-21T01:16:01;7.70;99.90
15707;DHT22;7953;54.302;10.128;2023-03-21T01:18:30;7.70;99.90
15707;DHT22;7953;54.302;10.128;2023-03-21T01:20:59;7.60;99.90
15707;DHT22;7953;54.302;10.128;2023-03-21T01:23:27;7.70;99.90
15707;DHT22;7953;54.302;10.128;2023-03-21T01:25:55;7.70;99.90
15707;DHT22;7953;54.302;10.128;2023-03-21T01:28:25;7.60;99.90
15707;DHT22;7953;54.302;10.128;2023-03-21T01:30:54;7.60;99.90
15707;DHT22;7953;54.302;10.128;2023-03-21T01:33:22;7.60;99.90
15707;DHT22;7953;54.302;10.128;2023-03-21T01:35:49;7.60;99.90
15707;DHT22;7953;54.302;10.128;2023-03-21T01:38:16;7.60;99.90
15707;DHT22;7953;54.302;10.128;2023-03-21T01:40:44;7.70;99.90
15707;DHT22;7953;54.302;10.128;2023-03-21T01:43:20;7.60;99.90
15707;DHT22;7953;54.302;10.128;2023-03-21T01:46:19;7.70;99.90
15707;DHT22;7953;54.302;10.128;2023-03-21T01:48:50;7.60;99.90
15707;DHT22;7953;54.302;10.128;2023-03-21T01:51:21;7.60;99.90
15707;DHT22;7953;54.302;10.128;2023-03-21T01:53:48;7.60;99.90
15707;DHT22;7953;54.302;10.128;2023-03-21T01:56:18;7.60;99.90
15707;DHT22;7953;54.302;10.128;2023-03-21T01:58:51;7.60;99.90
15707;DHT22;7953;54.302;10.128;2023-03-21T02:01:21;7.60;99.90
15707;DHT22;7953;54.302;10.128;2023-03-21T02:03:49;7.60;99.90
15707;DHT22;7953;54.302;10.128;2023-03-21T02:06:28;7.60;99.90
15707;DHT22;7953;54.302;10.128;2023-03-21T02:09:02;7.60;99.90
15707;DHT22;7953;54.302;10.128;2023-03-21T02:11:29;7.70;99.90
15707;DHT22;7953;54.302;10.128;2023-03-21T02:13:57;7.70;99.90
15707;DHT22;7953;54.302;10.128;2023-03-21T02:16:36;7.60;99.90
15707;DHT22;7953;54.302;10.128;2023-03-21T02:19:17;7.70;99.90
15707;DHT22;7953;54.302;10.128;2023-03-21T02:25:33;7.70;99.90
15707;DHT22;7953;54.302;10.128;2023-03-21T02:28:10;7.70;99.90
15707;DHT22;7953;54.302;10.128;2023-03-21T02:31:05;7.60;99.90
15707;DHT22;7953;54.302;10.128;2023-03-21T02:37:05;7.70;99.90
15707;DHT22;7953;54.302;10.128;2023-03-21T02:39:42;7.60;99.90
15707;DHT22;7953;54.302;10.128;2023-03-21T02:42:16;7.60;99.90
15707;DHT22;7953;54.302;10.128;2023-03-21T02:44:48;7.60;99.90
15707;DHT22;7953;54.302;10.128;2023-03-21T02:47:20;7.60;99.90
15707;DHT22;7953;54.302;10.128;2023-03-21T02:49:53;7.70;99.90
15707;DHT22;7953;54.302;10.128;2023-03-21T02:52:25;7.60;99.90
15707;DHT22;7953;54.302;10.128;2023-03-21T02:54:54;7.60;99.90
15707;DHT22;7953;54.302;10.128;2023-03-21T02:57:22;7.60;99.90
15707;DHT22;7953;54.302;10.128;2023-03-21T02:59:50;7.70;99.90
15707;DHT22;7953;54.302;10.128;2023-03-21T03:02:22;7.70;99.90
15707;DHT22;7953;54.302;10.128;2023-03-21T03:04:50;7.70;99.90
15707;DHT22;7953;54.302;10.128;2023-03-21T03:07:26;7.70;99.90
15707;DHT22;7953;54.302;10.128;2023-03-21T03:10:07;7.70;99.90
15707;DHT22;7953;54.302;10.128;2023-03-21T03:12:42;7.70;99.90
15707;DHT22;7953;54.302;10.128;2023-03-21T03:15:17;7.70;99.90
15707;DHT22;7953;54.302;10.128;2023-03-21T03:17:52;7.70;99.90
15707;DHT22;7953;54.302;10.128;2023-03-21T03:20:28;7.70;99.90
15707;DHT22;7953;54.302;10.128;2023-03-21T03:23:08;7.70;99.90
15707;DHT22;7953;54.302;10.128;2023-03-21T03:25:41;7.70;99.90
15707;DHT22;7953;54.302;10.128;2023-03-21T03:28:12;7.70;99.90
15707;DHT22;7953;54.302;10.128;2023-03-21T03:30:41;7.70;99.90
15707;DHT22;7953;54.302;10.128;2023-03-21T03:33:10;7.70;99.90
15707;DHT22;7953;54.302;10.128;2023-03-21T03:35:41;7.70;99.90
15707;DHT22;7953;54.302;10.128;2023-03-21T03:38:11;7.70;99.90
15707;DHT22;7953;54.302;10.128;2023-03-21T03:40:40;7.70;99.90
15707;DHT22;7953;54.302;10.128;2023-03-21T03:43:10;7.70;99.90
15707;DHT22;7953;54.302;10.128;2023-03-21T03:45:45;7.70;99.90
15707;DHT22;7953;54.302;10.128;2023-03-21T03:48:17;7.60;99.90
15707;DHT22;7953;54.302;10.128;2023-03-21T03:50:52;7.70;99.90
15707;DHT22;7953;54.302;10.128;2023-03-21T03:53:24;7.70;99.90
15707;DHT22;7953;54.302;10.128;2023-03-21T03:55:53;7.70;99.90
15707;DHT22;7953;54.302;10.128;2023-03-21T03:58:23;7.70;99.90
15707;DHT22;7953;54.302;10.128;2023-03-21T04:00:53;7.70;99.90
15707;DHT22;7953;54.302;10.128;2023-03-21T04:03:20;7.60;99.90
15707;DHT22;7953;54.302;10.128;2023-03-21T04:05:47;7.70;99.90
15707;DHT22;7953;54.302;10.128;2023-03-21T04:08:15;7.70;99.90
15707;DHT22;7953;54.302;10.128;2023-03-21T04:10:44;7.70;99.90
15707;DHT22;7953;54.302;10.128;2023-03-21T04:13:11;7.70;99.90
15707;DHT22;7953;54.302;10.128;2023-03-21T04:15:38;7.70;99.90
15707;DHT22;7953;54.302;10.128;2023-03-21T04:18:05;7.70;99.90
15707;DHT22;7953;54.302;10.128;2023-03-21T04:20:32;7.70;99.90
15707;DHT22;7953;54.302;10.128;2023-03-21T04:22:59;7.70;99.90
15707;DHT22;7953;54.302;10.128;2023-03-21T04:25:26;7.70;99.90
15707;DHT22;7953;54.302;10.128;2023-03-21T04:27:55;7.80;99.90
15707;DHT22;7953;54.302;10.128;2023-03-21T04:30:21;7.80;99.90
15707;DHT22;7953;54.302;10.128;2023-03-21T04:32:50;7.80;99.90
15707;DHT22;7953;54.302;10.128;2023-03-21T04:35:22;7.80;99.90
15707;DHT22;7953;54.302;10.128;2023-03-21T04:37:49;7.70;99.90
15707;DHT22;7953;54.302;10.128;2023-03-21T04:40:16;7.80;99.90
15707;DHT22;7953;54.302;10.128;2023-03-21T04:42:43;7.70;99.90
15707;DHT22;7953;54.302;10.128;2023-03-21T04:45:12;7.70;99.90
15707;DHT22;7953;54.302;10.128;2023-03-21T04:47:40;7.80;99.90
15707;DHT22;7953;54.302;10.128;2023-03-21T04:50:08;7.80;99.90
15707;DHT22;7953;54.302;10.128;2023-03-21T04:52:35;7.80;99.90
15707;DHT22;7953;54.302;10.128;2023-03-21T04:55:03;7.80;99.90
15707;DHT22;7953;54.302;10.128;2023-03-21T04:57:30;7.80;99.90
15707;DHT22;7953;54.302;10.128;2023-03-21T04:59:57;7.80;99.90
15707;DHT22;7953;54.302;10.128;2023-03-21T05:02:25;7.80;99.90
15707;DHT22;7953;54.302;10.128;2023-03-21T05:04:52;7.70;99.90
15707;DHT22;7953;54.302;10.128;2023-03-21T05:07:19;7.70;99.90
15707;DHT22;7953;54.302;10.128;2023-03-21T05:09:50;7.80;99.90
15707;DHT22;7953;54.302;10.128;2023-03-21T05:12:17;7.80;99.90
15707;DHT22;7953;54.302;10.128;2023-03-21T05:14:45;7.80;99.90
15707;DHT22;7953;54.302;10.128;2023-03-21T05:17:12;7.80;99.90
15707;DHT22;7953;54.302;10.128;2023-03-21T05:19:49;7.80;99.90
15707;DHT22;7953;54.302;10.128;2023-03-21T05:22:17;7.80;99.90
15707;DHT22;7953;54.302;10.128;2023-03-21T05:24:45;7.80;99.90
15707;DHT22;7953;54.302;10.128;2023-03-21T05:27:15;7.80;99.90
15707;DHT22;7953;54.302;10.128;2023-03-21T05:30:00;7.80;99.90
15707;DHT22;7953;54.302;10.128;2023-03-21T05:32:27;7.80;99.90
15707;DHT22;7953;54.302;10.128;2023-03-21T05:34:56;7.80;99.90
15707;DHT22;7953;54.302;10.128;2023-03-21T05:37:23;7.80;99.90
15707;DHT22;7953;54.302;10.128;2023-03-21T05:39:50;7.80;99.90
15707;DHT22;7953;54.302;10.128;2023-03-21T05:42:17;7.80;99.90
15707;DHT22;7953;54.302;10.128;2023-03-21T05:44:44;7.90;99.90
15707;DHT22;7953;54.302;10.128;2023-03-21T05:47:11;7.90;99.90
15707;DHT22;7953;54.302;10.128;2023-03-21T05:49:38;7.90;99.90
15707;DHT22;7953;54.302;10.128;2023-03-21T05:52:07;7.90;99.90
15707;DHT22;7953;54.302;10.128;2023-03-21T05:54:34;7.90;99.90
15707;DHT22;7953;54.302;10.128;2023-03-21T05:57:02;8.00;99.90
15707;DHT22;7953;54.302;10.128;2023-03-21T05:59:29;7.90;99.90
15707;DHT22;7953;54.302;10.128;2023-03-21T06:01:56;7.90;99.90
15707;DHT22;7953;54.302;10.128;2023-03-21T06:04:23;7.90;99.90
15707;DHT22;7953;54.302;10.128;2023-03-21T06:06:50;7.90;99.90
15707;DHT22;7953;54.302;10.128;2023-03-21T06:09:19;8.00;99.90
15707;DHT22;7953;54.302;10.128;2023-03-21T06:11:48;7.90;99.90
15707;DHT22;7953;54.302;10.128;2023-03-21T06:14:16;8.00;99.90
15707;DHT22;7953;54.302;10.128;2023-03-21T06:16:43;8.00;99.90
15707;DHT22;7953;54.302;10.128;2023-03-21T06:19:10;8.00;99.90
15707;DHT22;7953;54.302;10.128;2023-03-21T06:21:37;8.10;99.90
15707;DHT22;7953;54.302;10.128;2023-03-21T06:24:04;8.10;99.90
15707;DHT22;7953;54.302;10.128;2023-03-21T06:26:33;8.10;99.90
15707;DHT22;7953;54.302;10.128;2023-03-21T06:29:00;8.10;99.90
15707;DHT22;7953;54.302;10.128;2023-03-21T06:31:27;8.10;99.90
15707;DHT22;7953;54.302;10.128;2023-03-21T06:33:54;8.10;99.90
15707;DHT22;7953;54.302;10.128;2023-03-21T06:36:20;8.20;99.90
15707;DHT22;7953;54.302;10.128;2023-03-21T06:38:47;8.20;99.90
15707;DHT22;7953;54.302;10.128;2023-03-21T06:41:14;8.20;99.90
15707;DHT22;7953;54.302;10.128;2023-03-21T06:43:43;8.10;99.90
15707;DHT22;7953;54.302;10.128;2023-03-21T06:46:10;8.20;99.90
15707;DHT22;7953;54.302;10.128;2023-03-21T06:48:37;8.20;99.90
15707;DHT22;7953;54.302;10.128;2023-03-21T06:51:09;8.20;99.90
15707;DHT22;7953;54.302;10.128;2023-03-21T06:53:37;8.30;99.90
15707;DHT22;7953;54.302;10.128;2023-03-21T06:56:04;8.30;99.90
15707;DHT22;7953;54.302;10.128;2023-03-21T06:58:31;8.30;99.90
15707;DHT22;7953;54.302;10.128;2023-03-21T07:01:00;8.30;99.90
15707;DHT22;7953;54.302;10.128;2023-03-21T07:03:27;8.40;99.90
15707;DHT22;7953;54.302;10.128;2023-03-21T07:05:54;8.30;99.90
15707;DHT22;7953;54.302;10.128;2023-03-21T07:08:21;8.40;99.90
15707;DHT22;7953;54.302;10.128;2023-03-21T07:10:48;8.40;99.90
15707;DHT22;7953;54.302;10.128;2023-03-21T07:13:15;8.40;99.90
15707;DHT22;7953;54.302;10.128;2023-03-21T07:15:42;8.40;99.90
15707;DHT22;7953;54.302;10.128;2023-03-21T07:18:10;8.40;99.90
15707;DHT22;7953;54.302;10.128;2023-03-21T07:20:37;8.50;99.90
15707;DHT22;7953;54.302;10.128;2023-03-21T07:23:04;8.60;99.90
15707;DHT22;7953;54.302;10.128;2023-03-21T07:25:31;8.60;99.90
15707;DHT22;7953;54.302;10.128;2023-03-21T07:27:58;8.60;99.90
15707;DHT22;7953;54.302;10.128;2023-03-21T07:30:26;8.60;99.90
15707;DHT22;7953;54.302;10.128;2023-03-21T07:32:53;8.70;99.90
15707;DHT22;7953;54.302;10.128;2023-03-21T07:35:21;8.70;99.90
15707;DHT22;7953;54.302;10.128;2023-03-21T07:37:48;8.70;99.90
15707;DHT22;7953;54.302;10.128;2023-03-21T07:40:15;8.80;99.90
15707;DHT22;7953;54.302;10.128;2023-03-21T07:42:42;8.80;99.90
15707;DHT22;7953;54.302;10.128;2023-03-21T07:45:10;8.80;99.90
15707;DHT22;7953;54.302;10.128;2023-03-21T07:47:39;8.70;99.90
15707;DHT22;7953;54.302;10.128;2023-03-21T07:50:07;8.80;99.90
15707;DHT22;7953;54.302;10.128;2023-03-21T07:52:37;8.80;99.90
15707;DHT22;7953;54.302;10.128;2023-03-21T07:55:05;8.80;99.90
15707;DHT22;7953;54.302;10.128;2023-03-21T07:57:32;8.80;99.90
15707;DHT22;7953;54.302;10.128;2023-03-21T08:00:00;8.80;99.90
15707;DHT22;7953;54.302;10.128;2023-03-21T08:02:28;8.90;99.90
15707;DHT22;7953;54.302;10.128;2023-03-21T08:04:54;8.80;99.90
15707;DHT22;7953;54.302;10.128;2023-03-21T08:07:21;8.80;99.90
15707;DHT22;7953;54.302;10.128;2023-03-21T08:09:50;8.90;99.90
15707;DHT22;7953;54.302;10.128;2023-03-21T08:12:16;8.90;99.90
15707;DHT22;7953;54.302;10.128;2023-03-21T08:14:43;8.80;99.90
15707;DHT22;7953;54.302;10.128;2023-03-21T08:17:10;8.80;99.90
15707;DHT22;7953;54.302;10.128;2023-03-21T08:19:37;8.90;99.90
15707;DHT22;7953;54.302;10.128;2023-03-21T08:22:04;8.90;99.90
15707;DHT22;7953;54.302;10.128;2023-03-21T08:24:31;8.90;99.90
15707;DHT22;7953;54.302;10.128;2023-03-21T08:27:00;8.80;99.90
15707;DHT22;7953;54.302;10.128;2023-03-21T08:29:27;8.90;99.90
15707;DHT22;7953;54.302;10.128;2023-03-21T08:31:54;8.90;99.90
15707;DHT22;7953;54.302;10.128;2023-03-21T08:34:21;8.90;99.90
15707;DHT22;7953;54.302;10.128;2023-03-21T08:36:49;8.90;99.90
15707;DHT22;7953;54.302;10.128;2023-03-21T08:39:15;8.90;99.90
15707;DHT22;7953;54.302;10.128;2023-03-21T08:41:42;8.90;99.90
15707;DHT22;7953;54.302;10.128;2023-03-21T08:44:10;8.90;99.90
15707;DHT22;7953;54.302;10.128;2023-03-21T08:46:37;8.90;99.90
15707;DHT22;7953;54.302;10.128;2023-03-21T08:49:04;9.00;99.90
15707;DHT22;7953;54.302;10.128;2023-03-21T08:51:31;9.00;99.90
15707;DHT22;7953;54.302;10.128;2023-03-21T08:53:59;9.00;99.90
15707;DHT22;7953;54.302;10.128;2023-03-21T08:56:26;9.00;99.90
15707;DHT22;7953;54.302;10.128;2023-03-21T08:58:53;9.00;99.90
15707;DHT22;7953;54.302;10.128;2023-03-21T09:01:21;9.00;99.90
15707;DHT22;7953;54.302;10.128;2023-03-21T09:03:48;9.00;99.90
15707;DHT22;7953;54.302;10.128;2023-03-21T09:06:14;9.10;99.90
15707;DHT22;7953;54.302;10.128;2023-03-21T09:08:41;9.10;99.90
15707;DHT22;7953;54.302;10.128;2023-03-21T09:11:10;9.10;99.90
15707;DHT22;7953;54.302;10.128;2023-03-21T09:13:37;9.10;99.90
15707;DHT22;7953;54.302;10.128;2023-03-21T09:16:05;9.10;99.90
15707;DHT22;7953;54.302;10.128;2023-03-21T09:18:33;9.10;99.90
15707;DHT22;7953;54.302;10.128;2023-03-21T09:21:15;9.10;99.90
15707;DHT22;7953;54.302;10.128;2023-03-21T09:23:43;9.10;99.90
15707;DHT22;7953;54.302;10.128;2023-03-21T09:26:10;9.10;99.90
15707;DHT22;7953;54.302;10.128;2023-03-21T09:28:38;9.20;99.90
15707;DHT22;7953;54.302;10.128;2023-03-21T09:31:05;9.20;99.90
15707;DHT22;7953;54.302;10.128;2023-03-21T09:33:37;9.20;99.90
15707;DHT22;7953;54.302;10.128;2023-03-21T09:36:05;9.20;99.90
15707;DHT22;7953;54.302;10.128;2023-03-21T09:38:38;9.30;99.90
15707;DHT22;7953;54.302;10.128;2023-03-21T09:41:19;9.30;99.90
15707;DHT22;7953;54.302;10.128;2023-03-21T09:43:58;9.30;99.90
15707;DHT22;7953;54.302;10.128;2023-03-21T09:46:35;9.40;99.90
15707;DHT22;7953;54.302;10.128;2023-03-21T09:49:10;9.40;99.90
15707;DHT22;7953;54.302;10.128;2023-03-21T09:51:43;9.40;99.90
15707;DHT22;7953;54.302;10.128;2023-03-21T09:54:17;9.40;99.90
15707;DHT22;7953;54.302;10.128;2023-03-21T09:56:44;9.40;99.90
15707;DHT22;7953;54.302;10.128;2023-03-21T09:59:19;9.50;99.90
15707;DHT22;7953;54.302;10.128;2023-03-21T10:01:47;9.50;99.90
15707;DHT22;7953;54.302;10.128;2023-03-21T10:04:16;9.50;99.90
15707;DHT22;7953;54.302;10.128;2023-03-21T10:06:57;9.50;99.90
15707;DHT22;7953;54.302;10.128;2023-03-21T10:09:27;9.50;99.90
15707;DHT22;7953;54.302;10.128;2023-03-21T10:12:01;9.50;99.90
15707;DHT22;7953;54.302;10.128;2023-03-21T10:14:30;9.50;99.90
15707;DHT22;7953;54.302;10.128;2023-03-21T10:17:00;9.50;99.90
15707;DHT22;7953;54.302;10.128;2023-03-21T10:19:31;9.50;99.90
15707;DHT22;7953;54.302;10.128;2023-03-21T10:21:58;9.50;99.90
15707;DHT22;7953;54.302;10.128;2023-03-21T10:24:26;9.60;99.90
15707;DHT22;7953;54.302;10.128;2023-03-21T10:26:55;9.60;99.90
15707;DHT22;7953;54.302;10.128;2023-03-21T10:29:25;9.60;99.90
15707;DHT22;7953;54.302;10.128;2023-03-21T10:31:53;9.60;99.90
15707;DHT22;7953;54.302;10.128;2023-03-21T10:34:29;9.60;99.90
15707;DHT22;7953;54.302;10.128;2023-03-21T10:36:58;9.60;99.90
15707;DHT22;7953;54.302;10.128;2023-03-21T10:39:30;9.70;99.90
15707;DHT22;7953;54.302;10.128;2023-03-21T10:41:58;9.80;99.90
15707;DHT22;7953;54.302;10.128;2023-03-21T10:44:29;9.70;99.90
15707;DHT22;7953;54.302;10.128;2023-03-21T10:46:57;9.70;99.90
15707;DHT22;7953;54.302;10.128;2023-03-21T10:49:24;9.80;99.90
15707;DHT22;7953;54.302;10.128;2023-03-21T10:51:54;9.80;99.90
15707;DHT22;7953;54.302;10.128;2023-03-21T10:54:28;9.80;99.90
15707;DHT22;7953;54.302;10.128;2023-03-21T10:56:57;9.80;99.90
15707;DHT22;7953;54.302;10.128;2023-03-21T10:59:26;9.70;99.90
15707;DHT22;7953;54.302;10.128;2023-03-21T11:01:55;9.80;99.90
15707;DHT22;7953;54.302;10.128;2023-03-21T11:04:24;9.90;99.90
15707;DHT22;7953;54.302;10.128;2023-03-21T11:06:53;9.80;99.90
15707;DHT22;7953;54.302;10.128;2023-03-21T11:09:24;9.90;99.90
15707;DHT22;7953;54.302;10.128;2023-03-21T11:11:53;9.90;99.90
15707;DHT22;7953;54.302;10.128;2023-03-21T11:14:29;9.90;99.90
15707;DHT22;7953;54.302;10.128;2023-03-21T11:16:57;9.90;99.90
15707;DHT22;7953;54.302;10.128;2023-03-21T11:19:31;9.90;99.90
15707;DHT22;7953;54.302;10.128;2023-03-21T11:21:58;9.90;99.90
15707;DHT22;7953;54.302;10.128;2023-03-21T11:24:29;9.90;99.90
15707;DHT22;7953;54.302;10.128;2023-03-21T11:26:56;9.90;99.90
15707;DHT22;7953;54.302;10.128;2023-03-21T11:29:28;9.90;99.90
15707;DHT22;7953;54.302;10.128;2023-03-21T11:32:00;9.90;99.90
15707;DHT22;7953;54.302;10.128;2023-03-21T11:34:32;9.90;99.90
15707;DHT22;7953;54.302;10.128;2023-03-21T11:37:01;9.90;99.90
15707;DHT22;7953;54.302;10.128;2023-03-21T11:39:35;10.00;99.90
15707;DHT22;7953;54.302;10.128;2023-03-21T11:42:04;10.00;99.90
15707;DHT22;7953;54.302;10.128;2023-03-21T11:44:34;10.00;99.90
15707;DHT22;7953;54.302;10.128;2023-03-21T11:47:08;10.00;99.90
15707;DHT22;7953;54.302;10.128;2023-03-21T11:49:35;10.10;99.90
15707;DHT22;7953;54.302;10.128;2023-03-21T11:52:13;10.10;99.90
15707;DHT22;7953;54.302;10.128;2023-03-21T11:55:01;10.10;99.90
15707;DHT22;7953;54.302;10.128;2023-03-21T11:57:38;10.20;99.90
15707;DHT22;7953;54.302;10.128;2023-03-21T12:00:13;10.20;99.90
15707;DHT22;7953;54.302;10.128;2023-03-21T12:05:52;10.30;99.90
15707;DHT22;7953;54.302;10.128;2023-03-21T12:08:26;10.30;99.90
15707;DHT22;7953;54.302;10.128;2023-03-21T12:11:03;10.20;99.90
15707;DHT22;7953;54.302;10.128;2023-03-21T12:13:42;10.30;99.90
15707;DHT22;7953;54.302;10.128;2023-03-21T12:16:31;10.40;99.90
15707;DHT22;7953;54.302;10.128;2023-03-21T12:21:55;10.30;99.90
15707;DHT22;7953;54.302;10.128;2023-03-21T12:24:26;10.30;99.90
15707;DHT22;7953;54.302;10.128;2023-03-21T12:27:05;10.30;99.90
15707;DHT22;7953;54.302;10.128;2023-03-21T12:29:52;10.30;99.90
15707;DHT22;7953;54.302;10.128;2023-03-21T12:32:35;10.30;99.90
15707;DHT22;7953;54.302;10.128;2023-03-21T12:35:15;10.30;99.90
15707;DHT22;7953;54.302;10.128;2023-03-21T12:37:52;10.30;99.90
15707;DHT22;7953;54.302;10.128;2023-03-21T12:40:35;10.30;99.90
15707;DHT22;7953;54.302;10.128;2023-03-21T12:43:26;10.30;99.90
15707;DHT22;7953;54.302;10.128;2023-03-21T12:45:57;10.40;99.90
15707;DHT22;7953;54.302;10.128;2023-03-21T12:48:32;10.40;99.90
15707;DHT22;7953;54.302;10.128;2023-03-21T12:51:04;10.40;99.90
15707;DHT22;7953;54.302;10.128;2023-03-21T12:53:39;10.40;99.90
15707;DHT22;7953;54.302;10.128;2023-03-21T12:56:10;10.40;99.90
15707;DHT22;7953;54.302;10.128;2023-03-21T12:58:46;10.40;99.90
15707;DHT22;7953;54.302;10.128;2023-03-21T13:01:15;10.40;99.90
15707;DHT22;7953;54.302;10.128;2023-03-21T13:03:47;10.40;99.90
15707;DHT22;7953;54.302;10.128;2023-03-21T13:06:17;10.50;99.90
15707;DHT22;7953;54.302;10.128;2023-03-21T13:08:48;10.40;99.90
15707;DHT22;7953;54.302;10.128;2023-03-21T13:11:20;10.40;99.90
15707;DHT22;7953;54.302;10.128;2023-03-21T13:13:53;10.40;99.90
15707;DHT22;7953;54.302;10.128;2023-03-21T13:16:26;10.40;99.90
15707;DHT22;7953;54.302;10.128;2023-03-21T13:19:00;10.40;99.90
15707;DHT22;7953;54.302;10.128;2023-03-21T13:21:38;10.30;99.90
15707;DHT22;7953;54.302;10.128;2023-03-21T13:24:17;10.30;99.90
15707;DHT22;7953;54.302;10.128;2023-03-21T13:26:47;10.30;99.90
15707;DHT22;7953;54.302;10.128;2023-03-21T13:29:24;10.30;99.90
15707;DHT22;7953;54.302;10.128;2023-03-21T13:31:53;10.30;99.90
15707;DHT22;7953;54.302;10.128;2023-03-21T13:34:21;10.30;99.90
15707;DHT22;7953;54.302;10.128;2023-03-21T13:36:50;10.30;99.90
15707;DHT22;7953;54.302;10.128;2023-03-21T13:39:19;10.30;99.90
15707;DHT22;7953;54.302;10.128;2023-03-21T13:41:47;10.40;99.90
15707;DHT22;7953;54.302;10.128;2023-03-21T13:44:21;10.40;99.90
15707;DHT22;7953;54.302;10.128;2023-03-21T13:46:59;10.40;99.90
15707;DHT22;7953;54.302;10.128;2023-03-21T13:49:31;10.40;99.90
15707;DHT22;7953;54.302;10.128;2023-03-21T13:51:59;10.40;99.90
15707;DHT22;7953;54.302;10.128;2023-03-21T13:54:41;10.40;99.90
15707;DHT22;7953;54.302;10.128;2023-03-21T13:57:20;10.30;99.90
15707;DHT22;7953;54.302;10.128;2023-03-21T13:59:48;10.40;99.90
15707;DHT22;7953;54.302;10.128;2023-03-21T14:02:26;10.40;99.90
15707;DHT22;7953;54.302;10.128;2023-03-21T14:04:56;10.40;99.90
15707;DHT22;7953;54.302;10.128;2023-03-21T14:07:26;10.50;99.90
15707;DHT22;7953;54.302;10.128;2023-03-21T14:09:58;10.50;99.90
15707;DHT22;7953;54.302;10.128;2023-03-21T14:12:27;10.60;99.90
15707;DHT22;7953;54.302;10.128;2023-03-21T14:14:59;10.60;99.90
15707;DHT22;7953;54.302;10.128;2023-03-21T14:17:30;10.60;99.90
15707;DHT22;7953;54.302;10.128;2023-03-21T14:20:00;10.60;99.90
15707;DHT22;7953;54.302;10.128;2023-03-21T14:22:35;10.60;99.90
15707;DHT22;7953;54.302;10.128;2023-03-21T14:25:02;10.60;99.90
15707;DHT22;7953;54.302;10.128;2023-03-21T14:27:31;10.60;99.90
15707;DHT22;7953;54.302;10.128;2023-03-21T14:30:00;10.70;99.90
15707;DHT22;7953;54.302;10.128;2023-03-21T14:32:29;10.60;99.90
15707;DHT22;7953;54.302;10.128;2023-03-21T14:34:59;10.60;99.90
15707;DHT22;7953;54.302;10.128;2023-03-21T14:37:28;10.60;99.90
15707;DHT22;7953;54.302;10.128;2023-03-21T14:39:57;10.50;99.90
15707;DHT22;7953;54.302;10.128;2023-03-21T14:42:25;10.50;99.90
15707;DHT22;7953;54.302;10.128;2023-03-21T14:44:52;10.50;99.90
15707;DHT22;7953;54.302;10.128;2023-03-21T14:47:22;10.60;99.90
15707;DHT22;7953;54.302;10.128;2023-03-21T14:49:52;10.60;99.90
15707;DHT22;7953;54.302;10.128;2023-03-21T14:52:22;10.60;99.90
15707;DHT22;7953;54.302;10.128;2023-03-21T14:54:49;10.70;99.90
15707;DHT22;7953;54.302;10.128;2023-03-21T14:57:19;10.70;99.90
15707;DHT22;7953;54.302;10.128;2023-03-21T14:59:49;10.70;99.90
15707;DHT22;7953;54.302;10.128;2023-03-21T15:02:19;10.70;99.90
15707;DHT22;7953;54.302;10.128;2023-03-21T15:04:51;10.70;99.90
15707;DHT22;7953;54.302;10.128;2023-03-21T15:07:26;10.60;99.90
15707;DHT22;7953;54.302;10.128;2023-03-21T15:09:55;10.60;99.90
15707;DHT22;7953;54.302;10.128;2023-03-21T15:12:22;10.60;99.90
15707;DHT22;7953;54.302;10.128;2023-03-21T15:14:49;10.60;99.90
15707;DHT22;7953;54.302;10.128;2023-03-21T15:17:18;10.60;99.90
15707;DHT22;7953;54.302;10.128;2023-03-21T15:19:45;10.60;99.90
15707;DHT22;7953;54.302;10.128;2023-03-21T15:22:18;10.60;99.90
15707;DHT22;7953;54.302;10.128;2023-03-21T15:24:50;10.60;99.90
15707;DHT22;7953;54.302;10.128;2023-03-21T15:27:19;10.60;99.90
15707;DHT22;7953;54.302;10.128;2023-03-21T15:29:50;10.60;99.90
15707;DHT22;7953;54.302;10.128;2023-03-21T15:32:20;10.60;99.90
15707;DHT22;7953;54.302;10.128;2023-03-21T15:34:48;10.50;99.90
15707;DHT22;7953;54.302;10.128;2023-03-21T15:37:22;10.50;99.90
15707;DHT22;7953;54.302;10.128;2023-03-21T15:39:52;10.50;99.90
15707;DHT22;7953;54.302;10.128;2023-03-21T15:42:28;10.50;99.90
15707;DHT22;7953;54.302;10.128;2023-03-21T15:44:59;10.50;99.90
15707;DHT22;7953;54.302;10.128;2023-03-21T15:47:41;10.50;99.90
15707;DHT22;7953;54.302;10.128;2023-03-21T15:50:15;10.50;99.90
15707;DHT22;7953;54.302;10.128;2023-03-21T15:52:44;10.40;99.90
15707;DHT22;7953;54.302;10.128;2023-03-21T15:55:21;10.40;99.90
15707;DHT22;7953;54.302;10.128;2023-03-21T15:57:51;10.40;99.90
15707;DHT22;7953;54.302;10.128;2023-03-21T16:00:24;10.40;99.90
15707;DHT22;7953;54.302;10.128;2023-03-21T16:02:56;10.40;99.90
15707;DHT22;7953;54.302;10.128;2023-03-21T16:05:27;10.40;99.90
15707;DHT22;7953;54.302;10.128;2023-03-21T16:08:02;10.30;99.90
15707;DHT22;7953;54.302;10.128;2023-03-21T16:10:32;10.30;99.90
15707;DHT22;7953;54.302;10.128;2023-03-21T16:13:01;10.30;99.90
15707;DHT22;7953;54.302;10.128;2023-03-21T16:15:27;10.30;99.90